»·PEaware :: N62104 KSBA-KBUR

N62104 :: KSBA-KBUR

FLIGHT INFORMATION

Flight Status: Arrived
Operator: Privately registered:
United States
More flights under this callsign
Pilot: Anonymous 33677 (33677)
Aircraft: CESSNA 172 SKYHAWK
(C172)
More flights by this aircraft type
Origin: KSBA Santa Barbara Mun
United States
Destination: KBUR Bob Hope-Burbank
United States
More flights between these airports :: More routes between these airports
Route:
File this flight plan on PilotEdge
Remarks: CAT-8
Altitude:
(Current/Filed)
3,500ft
Speed:
(Current/Filed)
105kts
Departed: 22-Feb-21 03:43 PM
Arrived: 22-Feb-21 04:31 PM
Distance/Time
Traveled:
75nm/0:48
Distance/Time
To Go:
Arrived

Flight Plot

Page will automatically refresh every two minutes.


Map Options




Map Legend


Flown Route
Filed Route
Departure Airport
Arrival Airport
Navaid (VOR, NDB)
Fix

Horizontal Profiles

Position Reports

Time Latitude Longitude Heading Altitude Ground
Speed
22-Feb-21 15:29 34.423233 -119.836831 349 16ft 0kts
22-Feb-21 15:30 34.423233 -119.836830 349 16ft 0kts
22-Feb-21 15:31 34.423233 -119.836831 349 16ft 0kts
22-Feb-21 15:32 34.423233 -119.836831 349 16ft 0kts
22-Feb-21 15:33 34.423233 -119.836831 349 16ft 0kts
22-Feb-21 15:34 34.423233 -119.836831 349 16ft 0kts
22-Feb-21 15:35 34.423233 -119.836831 349 16ft 0kts
22-Feb-21 15:36 34.423233 -119.836831 349 16ft 0kts
22-Feb-21 15:37 34.423233 -119.836831 349 16ft 0kts
22-Feb-21 15:38 34.423255 -119.837174 349 17ft 7kts
22-Feb-21 15:39 34.426734 -119.837589 89 18ft 18kts
22-Feb-21 15:40 34.426955 -119.834698 6 16ft 0kts
22-Feb-21 15:41 34.426955 -119.834698 6 16ft 0kts
22-Feb-21 15:42 34.427553 -119.852891 267 223ft 89kts
22-Feb-21 15:43 34.423116 -119.885226 254 764ft 105kts
22-Feb-21 15:44 34.415732 -119.919741 216 1252ft 116kts
22-Feb-21 15:45 34.404804 -119.894386 93 1791ft 112kts
22-Feb-21 15:46 34.401796 -119.858367 94 2395ft 110kts
22-Feb-21 15:47 34.398943 -119.822226 91 2946ft 108kts
22-Feb-21 15:48 34.396605 -119.785969 102 3451ft 108kts
22-Feb-21 15:49 34.390820 -119.750155 100 3928ft 107kts
22-Feb-21 15:50 34.387150 -119.714347 96 4369ft 106kts
22-Feb-21 15:51 34.382832 -119.678972 98 4783ft 105kts
22-Feb-21 15:52 34.376746 -119.644343 98 5167ft 105kts
22-Feb-21 15:53 34.378743 -119.609337 87 5516ft 104kts
22-Feb-21 15:54 34.375155 -119.574769 104 5848ft 104kts
22-Feb-21 15:55 34.369813 -119.540987 99 6189ft 99kts
22-Feb-21 15:56 34.364562 -119.508397 100 6538ft 96kts
22-Feb-21 15:57 34.359729 -119.476187 100 6817ft 97kts
22-Feb-21 15:58 34.354950 -119.443601 100 7050ft 99kts
22-Feb-21 15:59 34.349708 -119.410652 97 7205ft 101kts
22-Feb-21 16:00 34.345548 -119.377149 99 7343ft 101kts
22-Feb-21 16:01 34.341589 -119.343197 95 7529ft 103kts
22-Feb-21 16:02 34.336061 -119.309080 100 7754ft 106kts
22-Feb-21 16:03 34.330507 -119.273245 105 7803ft 111kts
22-Feb-21 16:04 34.325692 -119.235904 95 7783ft 111kts
22-Feb-21 16:05 34.319866 -119.198872 93 7716ft 113kts
22-Feb-21 16:06 34.315739 -119.161257 97 7712ft 113kts
22-Feb-21 16:07 34.310451 -119.123735 100 7571ft 113kts
22-Feb-21 16:08 34.304670 -119.086658 101 7412ft 110kts
22-Feb-21 16:09 34.299507 -119.050458 99 7345ft 107kts
22-Feb-21 16:10 34.294323 -119.014861 99 7297ft 107kts
22-Feb-21 16:11 34.289382 -118.979285 97 7262ft 106kts
22-Feb-21 16:12 34.284359 -118.943869 100 7211ft 106kts
22-Feb-21 16:13 34.279443 -118.908524 97 7169ft 106kts
22-Feb-21 16:14 34.274349 -118.873324 99 7107ft 105kts
22-Feb-21 16:15 34.268870 -118.838415 100 6904ft 104kts
22-Feb-21 16:16 34.262732 -118.804288 95 6737ft 103kts
22-Feb-21 16:17 34.258141 -118.769848 97 6551ft 103kts
22-Feb-21 16:18 34.253682 -118.735625 93 6299ft 101kts
22-Feb-21 16:20 34.248782 -118.701559 97 5983ft 104kts
22-Feb-21 16:21 34.243480 -118.667858 95 5834ft 102kts
22-Feb-21 16:22 34.239097 -118.634085 99 5675ft 102kts
22-Feb-21 16:23 34.234349 -118.600374 97 5509ft 102kts
22-Feb-21 16:24 34.230175 -118.566702 104 5273ft 103kts
22-Feb-21 16:25 34.219518 -118.534459 100 4981ft 102kts
22-Feb-21 16:26 34.212406 -118.500934 103 4620ft 104kts
22-Feb-21 16:27 34.203858 -118.466763 100 3967ft 106kts
22-Feb-21 16:28 34.199445 -118.431218 89 3089ft 99kts
22-Feb-21 16:29 34.198262 -118.398718 90 2000ft 80kts
22-Feb-21 16:30 34.198086 -118.372598 108 912ft 76kts
22-Feb-21 16:31 34.196880 -118.360103 104 715ft 0kts
22-Feb-21 16:32 34.196880 -118.360103 104 715ft 0kts

Navigation Log

Ident Type
Flight plan parsing failed, navigation log unavailable